Humber Bridge — 3EHZ5 — position and weather

sailwx.info

Track history (hours):
 
Tides and Currents Weather Stations Pressure Air Temp Water Temp Dewpoint Dewpoint Depression Visibility Wind Speed Wind Dir Waves Ship Positions

Humber Bridge

Last reported at 2018-Jun-18 16:39 UTC. Time now 2018-Jun-18 21:07 UTC.
Position N 39°52' W 131°53'.

Length 336 m; draft 10 m.

Type: Ship (hazmat cat A). MMSI: 372038000.

Date/timePositionNaut miles runAvg speedWind from/ knotsBaromVisibWave heightAir tempDewpointWater temp
2018-Jun-18 16:39N 39°52' W 131°53'217.4
2018-Jun-18 16:30N 39°51' W 131°50'1117.9
2018-Jun-18 15:52N 39°45' W 131°37'718.0
2018-Jun-18 15:30N 39°42' W 131°30'917.7
2018-Jun-18 15:00N 39°38' W 131°20'2217.9
2018-Jun-18 13:46N 39°28' W 130°54'617.8
2018-Jun-18 13:25N 39°25' W 130°47'717.9
2018-Jun-18 13:00N 39°22' W 130°38'1017.6
2018-Jun-18 12:26N 39°17' W 130°27'817.7
2018-Jun-18 12:00N 39°13' W 130°18'1117.6
2018-Jun-18 11:24N 39°08' W 130°06'717.4
2018-Jun-18 11:00N 39°05' W 129°58'917.5
2018-Jun-18 10:30N 39°01' W 129°49'917.5
2018-Jun-18 10:00N 38°57' W 129°39'1217.6
2018-Jun-18 09:20N 38°51' W 129°25'517.1
2018-Jun-18 09:00N 38°48' W 129°19'917.7
2018-Jun-18 08:29N 38°44' W 129°09'917.7
2018-Jun-18 08:00N 38°40' W 128°59'1517.7
2018-Jun-18 07:09N 38°32' W 128°43'319.4
2018-Jun-18 07:00N 38°31' W 128°39'1121.4
2018-Jun-18 06:30N 38°25' W 128°27'1020.1
2018-Jun-18 06:00N 38°20' W 128°16'917.5
2018-Jun-18 05:30N 38°16' W 128°07'1217.5
2018-Jun-18 04:48N 38°10' W 127°53'12818.0
2018-Jun-17 21:39N 38°10' W 125°10'2117.6
2018-Jun-17 20:27N 38°10' W 124°43'1617.7
2018-Jun-17 19:32N 38°11' W 124°22'117.0
2018-Jun-17 19:28N 38°11' W 124°21'817.0
2018-Jun-17 19:00N 38°11' W 124°11'817.0
2018-Jun-17 18:30N 38°11' W 123°60'917.6
2018-Jun-17 18:00N 38°10' W 123°49'917.9
2018-Jun-17 17:30N 38°10' W 123°37'917.6
2018-Jun-17 17:00N 38°10' W 123°26'815.9
2018-Jun-17 16:30N 38°06' W 123°17'917.7
2018-Jun-17 16:00N 37°60' W 123°10'918.1
2018-Jun-17 15:30N 37°55' W 122°60'917.6
2018-Jun-17 15:00N 37°50' W 122°50'611.1
2018-Jun-17 14:30N 37°47' W 122°44'5 9.9
2018-Jun-17 14:01N 37°46' W 122°38'816.5
2018-Jun-17 13:31N 37°49' W 122°29'612.3
2018-Jun-17 13:01N 37°48' W 122°21'1 2.2
2018-Jun-17 12:31N 37°49' W 122°20'0 0.1
2018-Jun-17 12:00N 37°49' W 122°20'0 0.0
2018-Jun-17 11:30N 37°49' W 122°20'0 0.0
2018-Jun-17 11:00N 37°49' W 122°20'0 0.0
2018-Jun-17 10:30N 37°49' W 122°20'0 0.0
2018-Jun-17 10:00N 37°49' W 122°20'0 0.0
2018-Jun-17 09:30N 37°49' W 122°20'0 0.0
2018-Jun-17 09:00N 37°49' W 122°20'0 0.0
2018-Jun-17 08:30N 37°49' W 122°20'0 0.0
2018-Jun-17 08:00N 37°49' W 122°20'0 0.0
2018-Jun-17 07:30N 37°49' W 122°20'0 0.0
2018-Jun-17 07:00N 37°49' W 122°20'0 0.0
2018-Jun-17 06:30N 37°49' W 122°20'0 0.0
2018-Jun-17 06:00N 37°49' W 122°20'0 0.0
2018-Jun-17 05:30N 37°49' W 122°20'0 0.0
2018-Jun-17 05:00N 37°49' W 122°20'0 0.0
2018-Jun-17 04:30N 37°49' W 122°20'0 0.0
2018-Jun-17 04:00N 37°49' W 122°20'0 0.0
2018-Jun-17 03:30N 37°49' W 122°20'0 0.0
2018-Jun-17 03:00N 37°49' W 122°20'0 0.0
2018-Jun-17 02:30N 37°49' W 122°20'0 0.0
2018-Jun-17 02:00N 37°49' W 122°20'0 0.0
2018-Jun-17 01:30N 37°49' W 122°20'0 0.0
2018-Jun-17 01:00N 37°49' W 122°20'0 0.0
2018-Jun-17 00:30N 37°49' W 122°20'0 0.0
2018-Jun-17 00:00N 37°49' W 122°20'0 0.0
2018-Jun-16 23:27N 37°49' W 122°20'0 0.0
2018-Jun-16 23:00N 37°49' W 122°20'0 0.0
2018-Jun-16 22:24N 37°49' W 122°20'0 0.0
2018-Jun-16 22:00N 37°49' W 122°20'0 0.0
2018-Jun-16 21:30N 37°49' W 122°20'0 0.0
2018-Jun-16 21:00N 37°49' W 122°20'0 0.0
2018-Jun-16 20:30N 37°49' W 122°20'0 0.0
2018-Jun-16 20:00N 37°49' W 122°20'0 0.0
2018-Jun-16 19:30N 37°49' W 122°20'0 0.0
2018-Jun-16 19:00N 37°49' W 122°20'0 0.0
2018-Jun-16 18:27N 37°49' W 122°20'0 0.0
2018-Jun-16 18:00N 37°49' W 122°20'0 0.0
2018-Jun-16 17:30N 37°49' W 122°20'0 0.0
2018-Jun-16 17:00N 37°49' W 122°20'0 0.0
2018-Jun-16 16:30N 37°49' W 122°20'0 0.0
2018-Jun-16 16:00N 37°49' W 122°20'0 0.0
2018-Jun-16 15:30N 37°49' W 122°20'0 0.0
2018-Jun-16 15:00N 37°49' W 122°20'0 0.0
2018-Jun-16 14:30N 37°49' W 122°20'2 3.7
2018-Jun-16 14:01N 37°48' W 122°22'4 8.7
2018-Jun-16 13:31N 37°49' W 122°27'510.9
2018-Jun-16 13:01N 37°47' W 122°34'612.0
2018-Jun-16 12:31N 37°44' W 122°40'3 6.1
2018-Jun-16 12:00N 37°41' W 122°40'3 6.8
2018-Jun-16 11:31N 37°38' W 122°40'3 6.7
2018-Jun-16 11:00N 37°34' W 122°40'3 5.9
2018-Jun-16 10:31N 37°31' W 122°40'3 6.8
2018-Jun-16 10:00N 37°28' W 122°40'3 7.0
2018-Jun-16 09:31N 37°24' W 122°40'4 7.2
2018-Jun-16 09:01N 37°21' W 122°40'4 7.2
2018-Jun-16 08:31N 37°17' W 122°40'4 7.1
2018-Jun-16 08:00N 37°14' W 122°40'4 7.2
2018-Jun-16 07:30N 37°10' W 122°40'3 7.0
2018-Jun-16 07:00N 37°07' W 122°38'510.9
2018-Jun-16 06:31N 37°02' W 122°36'612.4
2018-Jun-16 06:00N 36°56' W 122°33'712.5
2018-Jun-16 05:27N 36°49' W 122°30'612.6
2018-Jun-16 05:00N 36°44' W 122°28'612.8
2018-Jun-16 04:30N 36°38' W 122°25'612.3
2018-Jun-16 04:00N 36°32' W 122°22'611.9
2018-Jun-16 03:30N 36°27' W 122°20'611.7
2018-Jun-16 03:01N 36°21' W 122°17'612.3
2018-Jun-16 02:31N 36°16' W 122°14'612.4
2018-Jun-16 02:00N 36°11' W 122°10'612.1
2018-Jun-16 01:30N 36°05' W 122°06'612.1
2018-Jun-16 01:00N 35°60' W 122°02'612.1
2018-Jun-16 00:31N 35°55' W 121°59'612.4
2018-Jun-16 00:00N 35°49' W 121°55'612.2
2018-Jun-15 23:31N 35°44' W 121°51'612.4
2018-Jun-15 23:00N 35°39' W 121°47'611.7
2018-Jun-15 22:29N 35°33' W 121°43'611.7
2018-Jun-15 22:00N 35°29' W 121°39'3 6.0
2018-Jun-15 21:28N 35°26' W 121°37'1 1.3
2018-Jun-15 21:01N 35°26' W 121°38'1 1.2
2018-Jun-15 20:30N 35°26' W 121°38'5 9.2
2018-Jun-15 20:00N 35°21' W 121°35'612.4
2018-Jun-15 19:29N 35°16' W 121°31'713.0
2018-Jun-15 18:59N 35°10' W 121°27'711.6
2018-Jun-15 18:23N 35°04' W 121°23'512.6
2018-Jun-15 17:59N 35°00' W 121°19'712.1
2018-Jun-15 17:25N 34°55' W 121°13'613.2
2018-Jun-15 16:58N 34°51' W 121°09'613.5
2018-Jun-15 16:31N 34°46' W 121°04'2 3.0
2018-Jun-15 15:54N 34°44' W 121°03'0 1.0
2018-Jun-15 15:27N 34°44' W 121°04'1 1.2
2018-Jun-15 14:59N 34°45' W 121°04'1 1.0
2018-Jun-15 14:28N 34°45' W 121°05'1 1.2
2018-Jun-15 14:00N 34°45' W 121°06'1 1.2
2018-Jun-15 13:30N 34°45' W 121°06'1 1.2
2018-Jun-15 12:58N 34°46' W 121°07'1 1.5
2018-Jun-15 12:14N 34°46' W 121°08'1 1.9
2018-Jun-15 11:41N 34°47' W 121°09'0 1.4
2018-Jun-15 11:21N 34°47' W 121°09'1 1.5
2018-Jun-15 11:00N 34°48' W 121°10'1 1.6
2018-Jun-15 10:26N 34°48' W 121°10'1 1.5
2018-Jun-15 09:58N 34°49' W 121°11'1 1.6
2018-Jun-15 09:29N 34°50' W 121°11'1 1.6
2018-Jun-15 08:55N 34°51' W 121°12'1 1.7
2018-Jun-15 08:30N 34°51' W 121°12'1 1.8
2018-Jun-15 08:00N 34°52' W 121°12'1 1.6
2018-Jun-15 07:30N 34°53' W 121°13'1 1.4
2018-Jun-15 06:59N 34°53' W 121°13'1 1.2
2018-Jun-15 06:29N 34°54' W 121°14'1 1.0
2018-Jun-15 05:58N 34°53' W 121°14'6 9.7
2018-Jun-15 05:23N 34°48' W 121°12'612.0
2018-Jun-15 04:54N 34°43' W 121°09'511.5
2018-Jun-15 04:30N 34°39' W 121°06'611.8
2018-Jun-15 03:59N 34°34' W 121°02'612.1
2018-Jun-15 03:30N 34°29' W 120°57'711.3
2018-Jun-15 02:54N 34°26' W 120°50'712.2
2018-Jun-15 02:20N 34°24' W 120°42'611.7
2018-Jun-15 01:50N 34°22' W 120°35'411.4
2018-Jun-15 01:28N 34°21' W 120°30'611.6
2018-Jun-15 00:57N 34°19' W 120°23'512.0
2018-Jun-15 00:30N 34°18' W 120°17'611.8
2018-Jun-15 00:00N 34°16' W 120°10'612.1
2018-Jun-14 23:30N 34°15' W 120°03'612.3
2018-Jun-14 23:00N 34°13' W 119°56'712.7
2018-Jun-14 22:28N 34°11' W 119°48'612.9
2018-Jun-14 21:59N 34°10' W 119°41'612.6
2018-Jun-14 21:30N 34°08' W 119°34'612.5
2018-Jun-14 21:00N 34°07' W 119°26'713.1
2018-Jun-14 20:30N 34°05' W 119°18'712.8
2018-Jun-14 19:58N 34°02' W 119°11'612.9
2018-Jun-14 19:30N 33°59' W 119°05'510.3
2018-Jun-14 18:59N 33°57' W 118°59'5 9.6
2018-Jun-14 18:31N 33°54' W 118°54'5 9.7
2018-Jun-14 18:00N 33°52' W 118°49'5 9.8
2018-Jun-14 17:31N 33°50' W 118°44'5 9.6
2018-Jun-14 17:01N 33°47' W 118°39'5 9.6
2018-Jun-14 16:31N 33°45' W 118°34'5 9.5
2018-Jun-14 16:00N 33°42' W 118°29'5 9.3
2018-Jun-14 15:30N 33°40' W 118°24'5 9.1
2018-Jun-14 14:59N 33°38' W 118°19'4 7.8
2018-Jun-14 14:30N 33°39' W 118°15'4 7.8
2018-Jun-14 14:00N 33°43' W 118°15'3 5.1
2018-Jun-14 13:30N 33°45' W 118°16'0 0.8
2018-Jun-14 12:58N 33°45' W 118°16'0 0.0
2018-Jun-14 12:28N 33°45' W 118°16'0 0.0
2018-Jun-14 11:58N 33°45' W 118°16'0 0.0
2018-Jun-14 11:28N 33°45' W 118°16'0 0.0
2018-Jun-14 10:58N 33°45' W 118°16'0 0.0
2018-Jun-14 10:28N 33°45' W 118°16'0 0.0
2018-Jun-14 09:58N 33°45' W 118°16'0 0.0
2018-Jun-14 09:28N 33°45' W 118°16'0 0.0
2018-Jun-14 08:58N 33°45' W 118°16'0 0.0
2018-Jun-14 08:28N 33°45' W 118°16'0 0.0
2018-Jun-14 07:58N 33°45' W 118°16'0 0.0
2018-Jun-14 07:28N 33°45' W 118°16'0 0.0
2018-Jun-14 06:58N 33°45' W 118°16'0 0.0
2018-Jun-14 06:28N 33°45' W 118°16'0 0.0
2018-Jun-14 05:58N 33°45' W 118°16'0 0.0
2018-Jun-14 05:28N 33°45' W 118°16'0 0.0
2018-Jun-14 04:58N 33°45' W 118°16'0 0.0
2018-Jun-14 04:28N 33°45' W 118°16'0 0.0
2018-Jun-14 03:58N 33°45' W 118°16'0 0.0
2018-Jun-14 03:28N 33°45' W 118°16'0 0.0
2018-Jun-14 02:58N 33°45' W 118°16'0 0.0
2018-Jun-14 02:28N 33°45' W 118°16'0 0.0
2018-Jun-14 01:58N 33°45' W 118°16'0 0.0
2018-Jun-14 01:28N 33°45' W 118°16'0 0.0
2018-Jun-14 00:58N 33°45' W 118°16'0 0.0
2018-Jun-14 00:28N 33°45' W 118°16'0 0.0
2018-Jun-13 23:58N 33°45' W 118°16'0 0.0
2018-Jun-13 23:28N 33°45' W 118°16'0 0.0
2018-Jun-13 22:58N 33°45' W 118°16'0 0.0
2018-Jun-13 22:28N 33°45' W 118°16'0 0.0
2018-Jun-13 21:58N 33°45' W 118°16'0 0.0
2018-Jun-13 21:28N 33°45' W 118°16'0 0.0
2018-Jun-13 20:58N 33°45' W 118°16'0 0.0
2018-Jun-13 20:28N 33°45' W 118°16'0 0.0
2018-Jun-13 19:58N 33°45' W 118°16'0 0.0
2018-Jun-13 19:28N 33°45' W 118°16'0 0.0
2018-Jun-13 18:58N 33°45' W 118°16'0 0.0
2018-Jun-13 18:28N 33°45' W 118°16'0 0.0
2018-Jun-13 17:58N 33°45' W 118°16'0 0.0
2018-Jun-13 17:28N 33°45' W 118°16'0 0.0
2018-Jun-13 16:58N 33°45' W 118°16'0 0.0
2018-Jun-13 16:28N 33°45' W 118°16'0 0.0
2018-Jun-13 15:58N 33°45' W 118°16'0 0.0
2018-Jun-13 15:28N 33°45' W 118°16'0 0.0
2018-Jun-13 14:58N 33°45' W 118°16'0 0.0
2018-Jun-13 14:28N 33°45' W 118°16'0 0.0
2018-Jun-13 13:58N 33°45' W 118°16'0 0.0
2018-Jun-13 13:28N 33°45' W 118°16'0 0.0
2018-Jun-13 12:58N 33°45' W 118°16'0 0.0
2018-Jun-13 12:28N 33°45' W 118°16'0 0.0
2018-Jun-13 11:58N 33°45' W 118°16'0 0.0
2018-Jun-13 11:25N 33°45' W 118°16'0 0.0
2018-Jun-13 10:58N 33°45' W 118°16'0 0.0
2018-Jun-13 10:28N 33°45' W 118°16'0 0.0
2018-Jun-13 09:56N 33°45' W 118°16'0 0.0
2018-Jun-13 09:29N 33°45' W 118°16'0 0.0
2018-Jun-13 08:59N 33°45' W 118°16'0 0.0
2018-Jun-13 08:29N 33°45' W 118°16'0 0.0
2018-Jun-13 07:59N 33°45' W 118°16'0 0.0
2018-Jun-13 07:29N 33°45' W 118°16'0 0.0
2018-Jun-13 06:59N 33°45' W 118°16'0 0.0
2018-Jun-13 06:29N 33°45' W 118°16'0 0.0
2018-Jun-13 05:59N 33°45' W 118°16'0 0.0
2018-Jun-13 05:29N 33°45' W 118°16'0 0.0
2018-Jun-13 04:59N 33°45' W 118°16'0 0.0
2018-Jun-13 04:29N 33°45' W 118°16'0 0.0
2018-Jun-13 03:59N 33°45' W 118°16'0 0.0
2018-Jun-13 03:29N 33°45' W 118°16'0 0.0
2018-Jun-13 02:59N 33°45' W 118°16'0 0.0
2018-Jun-13 02:29N 33°45' W 118°16'0 0.0
2018-Jun-13 01:59N 33°45' W 118°16'0 0.0
2018-Jun-13 01:29N 33°45' W 118°16'0 0.0
2018-Jun-13 00:59N 33°45' W 118°16'0 0.1
2018-Jun-13 00:29N 33°45' W 118°16'0 0.1
2018-Jun-12 23:58N 33°45' W 118°16'0 0.0
2018-Jun-12 23:29N 33°45' W 118°16'0 0.0
2018-Jun-12 22:59N 33°45' W 118°16'0 0.0
2018-Jun-12 22:28N 33°45' W 118°16'0 0.0
2018-Jun-12 21:59N 33°45' W 118°16'0 0.0
2018-Jun-12 21:29N 33°45' W 118°16'0 0.0
2018-Jun-12 20:58N 33°45' W 118°16'0 0.0
2018-Jun-12 20:29N 33°45' W 118°16'0 0.0
2018-Jun-12 19:59N 33°45' W 118°16'0 0.0
2018-Jun-12 19:28N 33°45' W 118°16'0 0.0
2018-Jun-12 18:58N 33°45' W 118°16'0 0.0
2018-Jun-12 18:28N 33°45' W 118°16'0 0.0
2018-Jun-12 17:58N 33°45' W 118°16'0 0.0
2018-Jun-12 17:28N 33°45' W 118°16'0 0.0
2018-Jun-12 16:58N 33°45' W 118°16'0 0.0
2018-Jun-12 16:28N 33°45' W 118°16'0 0.0
2018-Jun-12 15:55N 33°45' W 118°16'0 0.1
2018-Jun-12 15:28N 33°45' W 118°16'0 0.1
2018-Jun-12 14:58N 33°45' W 118°16'0 0.0
2018-Jun-12 14:28N 33°45' W 118°16'0 0.0
2018-Jun-12 13:58N 33°45' W 118°16'0 0.0
2018-Jun-12 13:28N 33°45' W 118°16'0 0.0
2018-Jun-12 12:58N 33°45' W 118°16'0 0.0
2018-Jun-12 12:28N 33°45' W 118°16'0 0.0
2018-Jun-12 11:58N 33°45' W 118°16'0 0.0
2018-Jun-12 11:28N 33°45' W 118°16'0 0.0
2018-Jun-12 10:58N 33°45' W 118°16'0 0.0
2018-Jun-12 10:28N 33°45' W 118°16'0 0.0
2018-Jun-12 09:58N 33°45' W 118°16'0 0.0
2018-Jun-12 09:28N 33°45' W 118°16'0 0.0
2018-Jun-12 08:58N 33°45' W 118°16'0 0.0
2018-Jun-12 08:28N 33°45' W 118°16'0 0.0
2018-Jun-12 07:58N 33°45' W 118°16'0 0.0
2018-Jun-12 07:28N 33°45' W 118°16'0 0.0
2018-Jun-12 06:58N 33°45' W 118°16'0 0.0
2018-Jun-12 06:28N 33°45' W 118°16'0 0.0
2018-Jun-12 05:58N 33°45' W 118°16'0 0.0
2018-Jun-12 05:29N 33°45' W 118°16'0 0.0
2018-Jun-12 04:58N 33°45' W 118°16'0 0.0
2018-Jun-12 04:28N 33°45' W 118°16'0 0.0
2018-Jun-12 03:58N 33°45' W 118°16'0 0.0
2018-Jun-12 03:28N 33°45' W 118°16'0 0.0
2018-Jun-12 02:58N 33°45' W 118°16'0 0.0
2018-Jun-12 02:28N 33°45' W 118°16'0 0.0
2018-Jun-12 01:58N 33°45' W 118°16'0 0.0
2018-Jun-12 01:28N 33°45' W 118°16'0 0.0
2018-Jun-12 00:58N 33°45' W 118°16'0 0.0
2018-Jun-12 00:28N 33°45' W 118°16'0 0.0
2018-Jun-11 23:58N 33°45' W 118°16'0 0.0
2018-Jun-11 23:28N 33°45' W 118°16'0 0.0
2018-Jun-11 22:58N 33°45' W 118°16'0 0.0
2018-Jun-11 22:28N 33°45' W 118°16'0 0.0
2018-Jun-11 21:58N 33°45' W 118°16'0 0.0
2018-Jun-11 21:28N 33°45' W 118°16'0 0.0
2018-Jun-11 20:58N 33°45' W 118°16'0 0.0
2018-Jun-11 20:28N 33°45' W 118°16'0 0.0
2018-Jun-11 19:58N 33°45' W 118°16'0 0.0
2018-Jun-11 19:28N 33°45' W 118°16'0 0.0
2018-Jun-11 18:58N 33°45' W 118°16'0 0.0
2018-Jun-11 18:28N 33°45' W 118°16'0 0.0
2018-Jun-11 17:58N 33°45' W 118°16'0 0.0
2018-Jun-11 17:28N 33°45' W 118°16'0 0.0
2018-Jun-11 16:58N 33°45' W 118°16'0 0.0
2018-Jun-11 16:28N 33°45' W 118°16'0 0.0
2018-Jun-11 15:58N 33°45' W 118°16'0 0.0
2018-Jun-11 15:28N 33°45' W 118°16'0 0.0
2018-Jun-11 14:58N 33°45' W 118°16'0 0.0
2018-Jun-11 14:28N 33°45' W 118°16'0 0.0
2018-Jun-11 13:58N 33°45' W 118°16'0 0.0
2018-Jun-11 13:28N 33°45' W 118°16'0 0.0
2018-Jun-11 12:58N 33°45' W 118°16'0 0.0
2018-Jun-11 12:28N 33°45' W 118°16'0 0.0
2018-Jun-11 11:58N 33°45' W 118°16'0 0.0
2018-Jun-11 11:28N 33°45' W 118°16'0 0.0
2018-Jun-11 10:58N 33°45' W 118°16'0 0.0
2018-Jun-11 10:28N 33°45' W 118°16'0 0.0
2018-Jun-11 09:58N 33°45' W 118°16'0 0.0
2018-Jun-11 09:28N 33°45' W 118°16'0 0.0
2018-Jun-11 08:58N 33°45' W 118°16'0 0.0
2018-Jun-11 08:28N 33°45' W 118°16'0 0.0
2018-Jun-11 07:58N 33°45' W 118°16'0 0.0
2018-Jun-11 07:28N 33°45' W 118°16'0 0.0
2018-Jun-11 06:58N 33°45' W 118°16'0 0.0
2018-Jun-11 06:28N 33°45' W 118°16'0 0.0
2018-Jun-11 05:58N 33°45' W 118°16'0 0.0
2018-Jun-11 05:28N 33°45' W 118°16'0 0.0
2018-Jun-11 04:58N 33°45' W 118°16'0 0.0
2018-Jun-11 04:28N 33°45' W 118°16'0 0.0
2018-Jun-11 03:58N 33°45' W 118°16'0 0.0
2018-Jun-11 03:28N 33°45' W 118°16'0 0.0
2018-Jun-11 02:58N 33°45' W 118°16'0 0.0
2018-Jun-11 02:28N 33°45' W 118°16'0 0.0
2018-Jun-11 01:58N 33°45' W 118°16'0 0.0
2018-Jun-11 01:28N 33°45' W 118°16'0 0.0
2018-Jun-11 00:58N 33°45' W 118°16'0 0.0
2018-Jun-11 00:28N 33°45' W 118°16'0 0.0
2018-Jun-10 23:58N 33°45' W 118°16'0 0.0
2018-Jun-10 23:28N 33°45' W 118°16'0 0.0
2018-Jun-10 22:58N 33°45' W 118°16'0 0.0
2018-Jun-10 22:28N 33°45' W 118°16'0 0.0
2018-Jun-10 21:58N 33°45' W 118°16'0 0.0
2018-Jun-10 21:28N 33°45' W 118°16'0 0.0
2018-Jun-10 20:58N 33°45' W 118°16'0 0.0
2018-Jun-10 20:28N 33°45' W 118°16'0 0.0
2018-Jun-10 19:58N 33°45' W 118°16'0 0.0
2018-Jun-10 19:28N 33°45' W 118°16'0 0.0
2018-Jun-10 18:58N 33°45' W 118°16'0 0.0
2018-Jun-10 18:28N 33°45' W 118°16'0 0.0
2018-Jun-10 17:58N 33°45' W 118°16'0 0.0
2018-Jun-10 17:28N 33°45' W 118°16'0 0.0
2018-Jun-10 16:58N 33°45' W 118°16'0 0.0
2018-Jun-10 16:28N 33°45' W 118°16'0 0.0
2018-Jun-10 15:58N 33°45' W 118°16'0 0.0
2018-Jun-10 15:28N 33°45' W 118°16'0 0.0
2018-Jun-10 14:58N 33°45' W 118°16'0 0.0
2018-Jun-10 13:58N 33°45' W 118°16'1 2.4
2018-Jun-10 13:30N 33°44' W 118°17'1 1.6
2018-Jun-10 13:00N 33°44' W 118°16'0 0.1
2018-Jun-10 12:30N 33°44' W 118°16'3 5.8
2018-Jun-10 12:00N 33°41' W 118°14'4 7.3
2018-Jun-10 11:30N 33°38' W 118°15'3 6.4
2018-Jun-10 11:00N 33°36' W 118°18'4 7.4
2018-Jun-10 10:30N 33°37' W 118°23'4 8.4
2018-Jun-10 10:00N 33°39' W 118°27'611.2
2018-Jun-10 09:30N 33°42' W 118°33'511.2
2018-Jun-10 09:00N 33°45' W 118°39'510.5
2018-Jun-10 08:30N 33°47' W 118°44'510.1
2018-Jun-10 08:00N 33°50' W 118°49'510.0
2018-Jun-10 07:30N 33°52' W 118°55'510.1
2018-Jun-10 07:00N 33°55' W 119°00'510.5
2018-Jun-10 06:30N 33°58' W 119°05'713.6
2018-Jun-10 06:01N 34°01' W 119°12'1019.7
2018-Jun-10 05:31N 34°04' W 119°24'1020.6
2018-Jun-10 05:01N 34°07' W 119°36'1020.1
2018-Jun-10 04:30N 34°09' W 119°48'1019.7
2018-Jun-10 04:00N 34°12' W 119°59'1019.0
2018-Jun-10 03:29N 34°15' W 120°10'918.9
2018-Jun-10 03:00N 34°17' W 120°21'1019.0
2018-Jun-10 02:28N 34°20' W 120°33'919.2
2018-Jun-10 02:00N 34°22' W 120°43'1019.1
2018-Jun-10 01:30N 34°25' W 120°54'1118.4
2018-Jun-10 00:53N 34°33' W 121°05'2 6.5
2018-Jun-10 00:30N 34°34' W 121°07'1 2.7
2018-Jun-10 00:00N 34°35' W 121°09'4 9.0
2018-Jun-09 23:30N 34°38' W 121°13'817.0
2018-Jun-09 23:00N 34°43' W 121°21'1020.0
2018-Jun-09 22:30N 34°49' W 121°30'1019.9
2018-Jun-09 22:00N 34°56' W 121°40'1019.7
2018-Jun-09 21:29N 35°02' W 121°50'1119.6
2018-Jun-09 20:56N 35°09' W 122°00'1019.5
2018-Jun-09 20:25N 35°15' W 122°10'819.5
2018-Jun-09 20:00N 35°19' W 122°18'  
Track history (hours):
 
Tides and Currents Weather Stations Pressure Air Temp Water Temp Dewpoint Dewpoint Depression Visibility Wind Speed Wind Dir Waves Ship Positions

Humber Bridge

Last reported at 2018-Jun-18 16:39 UTC. Time now 2018-Jun-18 21:07 UTC.
Position N 39°52' W 131°53'.

Length 336 m; draft 10 m.

Type: Ship (hazmat cat A). MMSI: 372038000.

Date/timePositionNaut miles runAvg speedWind from/ knotsBaromVisibWave heightAir tempDewpointWater temp
2018-Jun-18 16:39N 39°52' W 131°53'217.4
2018-Jun-18 16:30N 39°51' W 131°50'1117.9
2018-Jun-18 15:52N 39°45' W 131°37'718.0
2018-Jun-18 15:30N 39°42' W 131°30'917.7
2018-Jun-18 15:00N 39°38' W 131°20'2217.9
2018-Jun-18 13:46N 39°28' W 130°54'617.8
2018-Jun-18 13:25N 39°25' W 130°47'717.9
2018-Jun-18 13:00N 39°22' W 130°38'1017.6
2018-Jun-18 12:26N 39°17' W 130°27'817.7
2018-Jun-18 12:00N 39°13' W 130°18'1117.6
2018-Jun-18 11:24N 39°08' W 130°06'717.4
2018-Jun-18 11:00N 39°05' W 129°58'917.5
2018-Jun-18 10:30N 39°01' W 129°49'917.5
2018-Jun-18 10:00N 38°57' W 129°39'1217.6
2018-Jun-18 09:20N 38°51' W 129°25'517.1
2018-Jun-18 09:00N 38°48' W 129°19'917.7
2018-Jun-18 08:29N 38°44' W 129°09'917.7
2018-Jun-18 08:00N 38°40' W 128°59'1517.7
2018-Jun-18 07:09N 38°32' W 128°43'319.4
2018-Jun-18 07:00N 38°31' W 128°39'1121.4
2018-Jun-18 06:30N 38°25' W 128°27'1020.1
2018-Jun-18 06:00N 38°20' W 128°16'917.5
2018-Jun-18 05:30N 38°16' W 128°07'1217.5
2018-Jun-18 04:48N 38°10' W 127°53'12818.0
2018-Jun-17 21:39N 38°10' W 125°10'2117.6
2018-Jun-17 20:27N 38°10' W 124°43'1617.7
2018-Jun-17 19:32N 38°11' W 124°22'117.0
2018-Jun-17 19:28N 38°11' W 124°21'817.0
2018-Jun-17 19:00N 38°11' W 124°11'817.0
2018-Jun-17 18:30N 38°11' W 123°60'917.6
2018-Jun-17 18:00N 38°10' W 123°49'917.9
2018-Jun-17 17:30N 38°10' W 123°37'917.6
2018-Jun-17 17:00N 38°10' W 123°26'815.9
2018-Jun-17 16:30N 38°06' W 123°17'917.7
2018-Jun-17 16:00N 37°60' W 123°10'918.1
2018-Jun-17 15:30N 37°55' W 122°60'917.6
2018-Jun-17 15:00N 37°50' W 122°50'611.1
2018-Jun-17 14:30N 37°47' W 122°44'5 9.9
2018-Jun-17 14:01N 37°46' W 122°38'816.5
2018-Jun-17 13:31N 37°49' W 122°29'612.3
2018-Jun-17 13:01N 37°48' W 122°21'1 2.2
2018-Jun-17 12:31N 37°49' W 122°20'0 0.1
2018-Jun-17 12:00N 37°49' W 122°20'0 0.0
2018-Jun-17 11:30N 37°49' W 122°20'0 0.0
2018-Jun-17 11:00N 37°49' W 122°20'0 0.0
2018-Jun-17 10:30N 37°49' W 122°20'0 0.0
2018-Jun-17 10:00N 37°49' W 122°20'0 0.0
2018-Jun-17 09:30N 37°49' W 122°20'0 0.0
2018-Jun-17 09:00N 37°49' W 122°20'0 0.0
2018-Jun-17 08:30N 37°49' W 122°20'0 0.0
2018-Jun-17 08:00N 37°49' W 122°20'0 0.0
2018-Jun-17 07:30N 37°49' W 122°20'0 0.0
2018-Jun-17 07:00N 37°49' W 122°20'0 0.0
2018-Jun-17 06:30N 37°49' W 122°20'0 0.0
2018-Jun-17 06:00N 37°49' W 122°20'0 0.0
2018-Jun-17 05:30N 37°49' W 122°20'0 0.0
2018-Jun-17 05:00N 37°49' W 122°20'0 0.0
2018-Jun-17 04:30N 37°49' W 122°20'0 0.0
2018-Jun-17 04:00N 37°49' W 122°20'0 0.0
2018-Jun-17 03:30N 37°49' W 122°20'0 0.0
2018-Jun-17 03:00N 37°49' W 122°20'0 0.0
2018-Jun-17 02:30N 37°49' W 122°20'0 0.0
2018-Jun-17 02:00N 37°49' W 122°20'0 0.0
2018-Jun-17 01:30N 37°49' W 122°20'0 0.0
2018-Jun-17 01:00N 37°49' W 122°20'0 0.0
2018-Jun-17 00:30N 37°49' W 122°20'0 0.0
2018-Jun-17 00:00N 37°49' W 122°20'0 0.0
2018-Jun-16 23:27N 37°49' W 122°20'0 0.0
2018-Jun-16 23:00N 37°49' W 122°20'0 0.0
2018-Jun-16 22:24N 37°49' W 122°20'0 0.0
2018-Jun-16 22:00N 37°49' W 122°20'0 0.0
2018-Jun-16 21:30N 37°49' W 122°20'0 0.0
2018-Jun-16 21:00N 37°49' W 122°20'0 0.0
2018-Jun-16 20:30N 37°49' W 122°20'0 0.0
2018-Jun-16 20:00N 37°49' W 122°20'0 0.0
2018-Jun-16 19:30N 37°49' W 122°20'0 0.0
2018-Jun-16 19:00N 37°49' W 122°20'0 0.0
2018-Jun-16 18:27N 37°49' W 122°20'0 0.0
2018-Jun-16 18:00N 37°49' W 122°20'0 0.0
2018-Jun-16 17:30N 37°49' W 122°20'0 0.0
2018-Jun-16 17:00N 37°49' W 122°20'0 0.0
2018-Jun-16 16:30N 37°49' W 122°20'0 0.0
2018-Jun-16 16:00N 37°49' W 122°20'0 0.0
2018-Jun-16 15:30N 37°49' W 122°20'0 0.0
2018-Jun-16 15:00N 37°49' W 122°20'0 0.0
2018-Jun-16 14:30N 37°49' W 122°20'2 3.7
2018-Jun-16 14:01N 37°48' W 122°22'4 8.7
2018-Jun-16 13:31N 37°49' W 122°27'510.9
2018-Jun-16 13:01N 37°47' W 122°34'612.0
2018-Jun-16 12:31N 37°44' W 122°40'3 6.1
2018-Jun-16 12:00N 37°41' W 122°40'3 6.8
2018-Jun-16 11:31N 37°38' W 122°40'3 6.7
2018-Jun-16 11:00N 37°34' W 122°40'3 5.9
2018-Jun-16 10:31N 37°31' W 122°40'3 6.8
2018-Jun-16 10:00N 37°28' W 122°40'3 7.0
2018-Jun-16 09:31N 37°24' W 122°40'4 7.2
2018-Jun-16 09:01N 37°21' W 122°40'4 7.2
2018-Jun-16 08:31N 37°17' W 122°40'4 7.1
2018-Jun-16 08:00N 37°14' W 122°40'4 7.2
2018-Jun-16 07:30N 37°10' W 122°40'3 7.0
2018-Jun-16 07:00N 37°07' W 122°38'510.9
2018-Jun-16 06:31N 37°02' W 122°36'612.4
2018-Jun-16 06:00N 36°56' W 122°33'712.5
2018-Jun-16 05:27N 36°49' W 122°30'612.6
2018-Jun-16 05:00N 36°44' W 122°28'612.8
2018-Jun-16 04:30N 36°38' W 122°25'612.3
2018-Jun-16 04:00N 36°32' W 122°22'611.9
2018-Jun-16 03:30N 36°27' W 122°20'611.7
2018-Jun-16 03:01N 36°21' W 122°17'612.3
2018-Jun-16 02:31N 36°16' W 122°14'612.4
2018-Jun-16 02:00N 36°11' W 122°10'612.1
2018-Jun-16 01:30N 36°05' W 122°06'612.1
2018-Jun-16 01:00N 35°60' W 122°02'612.1
2018-Jun-16 00:31N 35°55' W 121°59'612.4
2018-Jun-16 00:00N 35°49' W 121°55'612.2
2018-Jun-15 23:31N 35°44' W 121°51'612.4
2018-Jun-15 23:00N 35°39' W 121°47'611.7
2018-Jun-15 22:29N 35°33' W 121°43'611.7
2018-Jun-15 22:00N 35°29' W 121°39'3 6.0
2018-Jun-15 21:28N 35°26' W 121°37'1 1.3
2018-Jun-15 21:01N 35°26' W 121°38'1 1.2
2018-Jun-15 20:30N 35°26' W 121°38'5 9.2
2018-Jun-15 20:00N 35°21' W 121°35'612.4
2018-Jun-15 19:29N 35°16' W 121°31'713.0
2018-Jun-15 18:59N 35°10' W 121°27'711.6
2018-Jun-15 18:23N 35°04' W 121°23'512.6
2018-Jun-15 17:59N 35°00' W 121°19'712.1
2018-Jun-15 17:25N 34°55' W 121°13'613.2
2018-Jun-15 16:58N 34°51' W 121°09'613.5
2018-Jun-15 16:31N 34°46' W 121°04'2 3.0
2018-Jun-15 15:54N 34°44' W 121°03'0 1.0
2018-Jun-15 15:27N 34°44' W 121°04'1 1.2
2018-Jun-15 14:59N 34°45' W 121°04'1 1.0
2018-Jun-15 14:28N 34°45' W 121°05'1 1.2
2018-Jun-15 14:00N 34°45' W 121°06'1 1.2
2018-Jun-15 13:30N 34°45' W 121°06'1 1.2
2018-Jun-15 12:58N 34°46' W 121°07'1 1.5
2018-Jun-15 12:14N 34°46' W 121°08'1 1.9
2018-Jun-15 11:41N 34°47' W 121°09'0 1.4
2018-Jun-15 11:21N 34°47' W 121°09'1 1.5
2018-Jun-15 11:00N 34°48' W 121°10'1 1.6
2018-Jun-15 10:26N 34°48' W 121°10'1 1.5
2018-Jun-15 09:58N 34°49' W 121°11'1 1.6
2018-Jun-15 09:29N 34°50' W 121°11'1 1.6
2018-Jun-15 08:55N 34°51' W 121°12'1 1.7
2018-Jun-15 08:30N 34°51' W 121°12'1 1.8
2018-Jun-15 08:00N 34°52' W 121°12'1 1.6
2018-Jun-15 07:30N 34°53' W 121°13'1 1.4
2018-Jun-15 06:59N 34°53' W 121°13'1 1.2
2018-Jun-15 06:29N 34°54' W 121°14'1 1.0
2018-Jun-15 05:58N 34°53' W 121°14'6 9.7
2018-Jun-15 05:23N 34°48' W 121°12'612.0
2018-Jun-15 04:54N 34°43' W 121°09'511.5
2018-Jun-15 04:30N 34°39' W 121°06'611.8
2018-Jun-15 03:59N 34°34' W 121°02'612.1
2018-Jun-15 03:30N 34°29' W 120°57'711.3
2018-Jun-15 02:54N 34°26' W 120°50'712.2
2018-Jun-15 02:20N 34°24' W 120°42'611.7
2018-Jun-15 01:50N 34°22' W 120°35'411.4
2018-Jun-15 01:28N 34°21' W 120°30'611.6
2018-Jun-15 00:57N 34°19' W 120°23'512.0
2018-Jun-15 00:30N 34°18' W 120°17'611.8
2018-Jun-15 00:00N 34°16' W 120°10'612.1
2018-Jun-14 23:30N 34°15' W 120°03'612.3
2018-Jun-14 23:00N 34°13' W 119°56'712.7
2018-Jun-14 22:28N 34°11' W 119°48'612.9
2018-Jun-14 21:59N 34°10' W 119°41'612.6
2018-Jun-14 21:30N 34°08' W 119°34'612.5
2018-Jun-14 21:00N 34°07' W 119°26'713.1
2018-Jun-14 20:30N 34°05' W 119°18'712.8
2018-Jun-14 19:58N 34°02' W 119°11'612.9
2018-Jun-14 19:30N 33°59' W 119°05'510.3
2018-Jun-14 18:59N 33°57' W 118°59'5 9.6
2018-Jun-14 18:31N 33°54' W 118°54'5 9.7
2018-Jun-14 18:00N 33°52' W 118°49'5 9.8
2018-Jun-14 17:31N 33°50' W 118°44'5 9.6
2018-Jun-14 17:01N 33°47' W 118°39'5 9.6
2018-Jun-14 16:31N 33°45' W 118°34'5 9.5
2018-Jun-14 16:00N 33°42' W 118°29'5 9.3
2018-Jun-14 15:30N 33°40' W 118°24'5 9.1
2018-Jun-14 14:59N 33°38' W 118°19'4 7.8
2018-Jun-14 14:30N 33°39' W 118°15'4 7.8
2018-Jun-14 14:00N 33°43' W 118°15'3 5.1
2018-Jun-14 13:30N 33°45' W 118°16'0 0.8
2018-Jun-14 12:58N 33°45' W 118°16'0 0.0
2018-Jun-14 12:28N 33°45' W 118°16'0 0.0
2018-Jun-14 11:58N 33°45' W 118°16'0 0.0
2018-Jun-14 11:28N 33°45' W 118°16'0 0.0
2018-Jun-14 10:58N 33°45' W 118°16'0 0.0
2018-Jun-14 10:28N 33°45' W 118°16'0 0.0
2018-Jun-14 09:58N 33°45' W 118°16'0 0.0
2018-Jun-14 09:28N 33°45' W 118°16'0 0.0
2018-Jun-14 08:58N 33°45' W 118°16'0 0.0
2018-Jun-14 08:28N 33°45' W 118°16'0 0.0
2018-Jun-14 07:58N 33°45' W 118°16'0 0.0
2018-Jun-14 07:28N 33°45' W 118°16'0 0.0
2018-Jun-14 06:58N 33°45' W 118°16'0 0.0
2018-Jun-14 06:28N 33°45' W 118°16'0 0.0
2018-Jun-14 05:58N 33°45' W 118°16'0 0.0
2018-Jun-14 05:28N 33°45' W 118°16'0 0.0
2018-Jun-14 04:58N 33°45' W 118°16'0 0.0
2018-Jun-14 04:28N 33°45' W 118°16'0 0.0
2018-Jun-14 03:58N 33°45' W 118°16'0 0.0
2018-Jun-14 03:28N 33°45' W 118°16'0 0.0
2018-Jun-14 02:58N 33°45' W 118°16'0 0.0
2018-Jun-14 02:28N 33°45' W 118°16'0 0.0
2018-Jun-14 01:58N 33°45' W 118°16'0 0.0
2018-Jun-14 01:28N 33°45' W 118°16'0 0.0
2018-Jun-14 00:58N 33°45' W 118°16'0 0.0
2018-Jun-14 00:28N 33°45' W 118°16'0 0.0
2018-Jun-13 23:58N 33°45' W 118°16'0 0.0
2018-Jun-13 23:28N 33°45' W 118°16'0 0.0
2018-Jun-13 22:58N 33°45' W 118°16'0 0.0
2018-Jun-13 22:28N 33°45' W 118°16'0 0.0
2018-Jun-13 21:58N 33°45' W 118°16'0 0.0
2018-Jun-13 21:28N 33°45' W 118°16'0 0.0
2018-Jun-13 20:58N 33°45' W 118°16'0 0.0
2018-Jun-13 20:28N 33°45' W 118°16'0 0.0
2018-Jun-13 19:58N 33°45' W 118°16'0 0.0
2018-Jun-13 19:28N 33°45' W 118°16'0 0.0
2018-Jun-13 18:58N 33°45' W 118°16'0 0.0
2018-Jun-13 18:28N 33°45' W 118°16'0 0.0
2018-Jun-13 17:58N 33°45' W 118°16'0 0.0
2018-Jun-13 17:28N 33°45' W 118°16'0 0.0
2018-Jun-13 16:58N 33°45' W 118°16'0 0.0
2018-Jun-13 16:28N 33°45' W 118°16'0 0.0
2018-Jun-13 15:58N 33°45' W 118°16'0 0.0
2018-Jun-13 15:28N 33°45' W 118°16'0 0.0
2018-Jun-13 14:58N 33°45' W 118°16'0 0.0
2018-Jun-13 14:28N 33°45' W 118°16'0 0.0
2018-Jun-13 13:58N 33°45' W 118°16'0 0.0
2018-Jun-13 13:28N 33°45' W 118°16'0 0.0
2018-Jun-13 12:58N 33°45' W 118°16'0 0.0
2018-Jun-13 12:28N 33°45' W 118°16'0 0.0
2018-Jun-13 11:58N 33°45' W 118°16'0 0.0
2018-Jun-13 11:25N 33°45' W 118°16'0 0.0
2018-Jun-13 10:58N 33°45' W 118°16'0 0.0
2018-Jun-13 10:28N 33°45' W 118°16'0 0.0
2018-Jun-13 09:56N 33°45' W 118°16'0 0.0
2018-Jun-13 09:29N 33°45' W 118°16'0 0.0
2018-Jun-13 08:59N 33°45' W 118°16'0 0.0
2018-Jun-13 08:29N 33°45' W 118°16'0 0.0
2018-Jun-13 07:59N 33°45' W 118°16'0 0.0
2018-Jun-13 07:29N 33°45' W 118°16'0 0.0
2018-Jun-13 06:59N 33°45' W 118°16'0 0.0
2018-Jun-13 06:29N 33°45' W 118°16'0 0.0
2018-Jun-13 05:59N 33°45' W 118°16'0 0.0
2018-Jun-13 05:29N 33°45' W 118°16'0 0.0
2018-Jun-13 04:59N 33°45' W 118°16'0 0.0
2018-Jun-13 04:29N 33°45' W 118°16'0 0.0
2018-Jun-13 03:59N 33°45' W 118°16'0 0.0
2018-Jun-13 03:29N 33°45' W 118°16'0 0.0
2018-Jun-13 02:59N 33°45' W 118°16'0 0.0
2018-Jun-13 02:29N 33°45' W 118°16'0 0.0
2018-Jun-13 01:59N 33°45' W 118°16'0 0.0
2018-Jun-13 01:29N 33°45' W 118°16'0 0.0
2018-Jun-13 00:59N 33°45' W 118°16'0 0.1
2018-Jun-13 00:29N 33°45' W 118°16'0 0.1
2018-Jun-12 23:58N 33°45' W 118°16'0 0.0
2018-Jun-12 23:29N 33°45' W 118°16'0 0.0
2018-Jun-12 22:59N 33°45' W 118°16'0 0.0
2018-Jun-12 22:28N 33°45' W 118°16'0 0.0
2018-Jun-12 21:59N 33°45' W 118°16'0 0.0
2018-Jun-12 21:29N 33°45' W 118°16'0 0.0
2018-Jun-12 20:58N 33°45' W 118°16'0 0.0
2018-Jun-12 20:29N 33°45' W 118°16'0 0.0
2018-Jun-12 19:59N 33°45' W 118°16'0 0.0
2018-Jun-12 19:28N 33°45' W 118°16'0 0.0
2018-Jun-12 18:58N 33°45' W 118°16'0 0.0
2018-Jun-12 18:28N 33°45' W 118°16'0 0.0
2018-Jun-12 17:58N 33°45' W 118°16'0 0.0
2018-Jun-12 17:28N 33°45' W 118°16'0 0.0
2018-Jun-12 16:58N 33°45' W 118°16'0 0.0
2018-Jun-12 16:28N 33°45' W 118°16'0 0.0
2018-Jun-12 15:55N 33°45' W 118°16'0 0.1
2018-Jun-12 15:28N 33°45' W 118°16'0 0.1
2018-Jun-12 14:58N 33°45' W 118°16'0 0.0
2018-Jun-12 14:28N 33°45' W 118°16'0 0.0
2018-Jun-12 13:58N 33°45' W 118°16'0 0.0
2018-Jun-12 13:28N 33°45' W 118°16'0 0.0
2018-Jun-12 12:58N 33°45' W 118°16'0 0.0
2018-Jun-12 12:28N 33°45' W 118°16'0 0.0
2018-Jun-12 11:58N 33°45' W 118°16'0 0.0
2018-Jun-12 11:28N 33°45' W 118°16'0 0.0
2018-Jun-12 10:58N 33°45' W 118°16'0 0.0
2018-Jun-12 10:28N 33°45' W 118°16'0 0.0
2018-Jun-12 09:58N 33°45' W 118°16'0 0.0
2018-Jun-12 09:28N 33°45' W 118°16'0 0.0
2018-Jun-12 08:58N 33°45' W 118°16'0 0.0
2018-Jun-12 08:28N 33°45' W 118°16'0 0.0
2018-Jun-12 07:58N 33°45' W 118°16'0 0.0
2018-Jun-12 07:28N 33°45' W 118°16'0 0.0
2018-Jun-12 06:58N 33°45' W 118°16'0 0.0
2018-Jun-12 06:28N 33°45' W 118°16'0 0.0
2018-Jun-12 05:58N 33°45' W 118°16'0 0.0
2018-Jun-12 05:29N 33°45' W 118°16'0 0.0
2018-Jun-12 04:58N 33°45' W 118°16'0 0.0
2018-Jun-12 04:28N 33°45' W 118°16'0 0.0
2018-Jun-12 03:58N 33°45' W 118°16'0 0.0
2018-Jun-12 03:28N 33°45' W 118°16'0 0.0
2018-Jun-12 02:58N 33°45' W 118°16'0 0.0
2018-Jun-12 02:28N 33°45' W 118°16'0 0.0
2018-Jun-12 01:58N 33°45' W 118°16'0 0.0
2018-Jun-12 01:28N 33°45' W 118°16'0 0.0
2018-Jun-12 00:58N 33°45' W 118°16'0 0.0
2018-Jun-12 00:28N 33°45' W 118°16'0 0.0
2018-Jun-11 23:58N 33°45' W 118°16'0 0.0
2018-Jun-11 23:28N 33°45' W 118°16'0 0.0
2018-Jun-11 22:58N 33°45' W 118°16'0 0.0
2018-Jun-11 22:28N 33°45' W 118°16'0 0.0
2018-Jun-11 21:58N 33°45' W 118°16'0 0.0
2018-Jun-11 21:28N 33°45' W 118°16'0 0.0
2018-Jun-11 20:58N 33°45' W 118°16'0 0.0
2018-Jun-11 20:28N 33°45' W 118°16'0 0.0
2018-Jun-11 19:58N 33°45' W 118°16'0 0.0
2018-Jun-11 19:28N 33°45' W 118°16'0 0.0
2018-Jun-11 18:58N 33°45' W 118°16'0 0.0
2018-Jun-11 18:28N 33°45' W 118°16'0 0.0
2018-Jun-11 17:58N 33°45' W 118°16'0 0.0
2018-Jun-11 17:28N 33°45' W 118°16'0 0.0
2018-Jun-11 16:58N 33°45' W 118°16'0 0.0
2018-Jun-11 16:28N 33°45' W 118°16'0 0.0
2018-Jun-11 15:58N 33°45' W 118°16'0 0.0
2018-Jun-11 15:28N 33°45' W 118°16'0 0.0
2018-Jun-11 14:58N 33°45' W 118°16'0 0.0
2018-Jun-11 14:28N 33°45' W 118°16'0 0.0
2018-Jun-11 13:58N 33°45' W 118°16'0 0.0
2018-Jun-11 13:28N 33°45' W 118°16'0 0.0
2018-Jun-11 12:58N 33°45' W 118°16'0 0.0
2018-Jun-11 12:28N 33°45' W 118°16'0 0.0
2018-Jun-11 11:58N 33°45' W 118°16'0 0.0
2018-Jun-11 11:28N 33°45' W 118°16'0 0.0
2018-Jun-11 10:58N 33°45' W 118°16'0 0.0
2018-Jun-11 10:28N 33°45' W 118°16'0 0.0
2018-Jun-11 09:58N 33°45' W 118°16'0 0.0
2018-Jun-11 09:28N 33°45' W 118°16'0 0.0
2018-Jun-11 08:58N 33°45' W 118°16'0 0.0
2018-Jun-11 08:28N 33°45' W 118°16'0 0.0
2018-Jun-11 07:58N 33°45' W 118°16'0 0.0
2018-Jun-11 07:28N 33°45' W 118°16'0 0.0
2018-Jun-11 06:58N 33°45' W 118°16'0 0.0
2018-Jun-11 06:28N 33°45' W 118°16'0 0.0
2018-Jun-11 05:58N 33°45' W 118°16'0 0.0
2018-Jun-11 05:28N 33°45' W 118°16'0 0.0
2018-Jun-11 04:58N 33°45' W 118°16'0 0.0
2018-Jun-11 04:28N 33°45' W 118°16'0 0.0
2018-Jun-11 03:58N 33°45' W 118°16'0 0.0
2018-Jun-11 03:28N 33°45' W 118°16'0 0.0
2018-Jun-11 02:58N 33°45' W 118°16'0 0.0
2018-Jun-11 02:28N 33°45' W 118°16'0 0.0
2018-Jun-11 01:58N 33°45' W 118°16'0 0.0
2018-Jun-11 01:28N 33°45' W 118°16'0 0.0
2018-Jun-11 00:58N 33°45' W 118°16'0 0.0
2018-Jun-11 00:28N 33°45' W 118°16'0 0.0
2018-Jun-10 23:58N 33°45' W 118°16'0 0.0
2018-Jun-10 23:28N 33°45' W 118°16'0 0.0
2018-Jun-10 22:58N 33°45' W 118°16'0 0.0
2018-Jun-10 22:28N 33°45' W 118°16'0 0.0
2018-Jun-10 21:58N 33°45' W 118°16'0 0.0
2018-Jun-10 21:28N 33°45' W 118°16'0 0.0
2018-Jun-10 20:58N 33°45' W 118°16'0 0.0
2018-Jun-10 20:28N 33°45' W 118°16'0 0.0
2018-Jun-10 19:58N 33°45' W 118°16'0 0.0
2018-Jun-10 19:28N 33°45' W 118°16'0 0.0
2018-Jun-10 18:58N 33°45' W 118°16'0 0.0
2018-Jun-10 18:28N 33°45' W 118°16'0 0.0
2018-Jun-10 17:58N 33°45' W 118°16'0 0.0
2018-Jun-10 17:28N 33°45' W 118°16'0 0.0
2018-Jun-10 16:58N 33°45' W 118°16'0 0.0
2018-Jun-10 16:28N 33°45' W 118°16'0 0.0
2018-Jun-10 15:58N 33°45' W 118°16'0 0.0
2018-Jun-10 15:28N 33°45' W 118°16'0 0.0
2018-Jun-10 14:58N 33°45' W 118°16'0 0.0
2018-Jun-10 13:58N 33°45' W 118°16'1 2.4
2018-Jun-10 13:30N 33°44' W 118°17'1 1.6
2018-Jun-10 13:00N 33°44' W 118°16'0 0.1
2018-Jun-10 12:30N 33°44' W 118°16'3 5.8
2018-Jun-10 12:00N 33°41' W 118°14'4 7.3
2018-Jun-10 11:30N 33°38' W 118°15'3 6.4
2018-Jun-10 11:00N 33°36' W 118°18'4 7.4
2018-Jun-10 10:30N 33°37' W 118°23'4 8.4
2018-Jun-10 10:00N 33°39' W 118°27'611.2
2018-Jun-10 09:30N 33°42' W 118°33'511.2
2018-Jun-10 09:00N 33°45' W 118°39'510.5
2018-Jun-10 08:30N 33°47' W 118°44'510.1
2018-Jun-10 08:00N 33°50' W 118°49'510.0
2018-Jun-10 07:30N 33°52' W 118°55'510.1
2018-Jun-10 07:00N 33°55' W 119°00'510.5
2018-Jun-10 06:30N 33°58' W 119°05'713.6
2018-Jun-10 06:01N 34°01' W 119°12'1019.7
2018-Jun-10 05:31N 34°04' W 119°24'1020.6
2018-Jun-10 05:01N 34°07' W 119°36'1020.1
2018-Jun-10 04:30N 34°09' W 119°48'1019.7
2018-Jun-10 04:00N 34°12' W 119°59'1019.0
2018-Jun-10 03:29N 34°15' W 120°10'918.9
2018-Jun-10 03:00N 34°17' W 120°21'1019.0
2018-Jun-10 02:28N 34°20' W 120°33'919.2
2018-Jun-10 02:00N 34°22' W 120°43'1019.1
2018-Jun-10 01:30N 34°25' W 120°54'1118.4
2018-Jun-10 00:53N 34°33' W 121°05'2 6.5
2018-Jun-10 00:30N 34°34' W 121°07'1 2.7
2018-Jun-10 00:00N 34°35' W 121°09'4 9.0
2018-Jun-09 23:30N 34°38' W 121°13'817.0
2018-Jun-09 23:00N 34°43' W 121°21'1020.0
2018-Jun-09 22:30N 34°49' W 121°30'1019.9
2018-Jun-09 22:00N 34°56' W 121°40'1019.7
2018-Jun-09 21:29N 35°02' W 121°50'1119.6
2018-Jun-09 20:56N 35°09' W 122°00'1019.5
2018-Jun-09 20:25N 35°15' W 122°10'819.5
2018-Jun-09 20:00N 35°19' W 122°18'  

Dump ship's entire track history